Time;durP1;ratioP1;P1;durP2;ratioP2;P2;SDS_P1;SDS_P2;PMS_P1;PMS_P2;Temp;Humidity;BMP_temperature;BMP_pressure;BME280_temperature;BME280_humidity;BME280_pressure;Samples;Min_cycle;Max_cycle;Signal;HPM_P1;HPM_P2
2022/05/14 00:01:14;;;;;;;;;;;24.30;84.80;;;;;;5047272;28;20319;-58
2022/05/14 00:03:42;;;;;;;;;;;24.30;84.50;;;;;;5034919;28;19929;-59
2022/05/14 00:06:11;;;;;;;;;;;24.30;84.30;;;;;;5054848;28;19932;-59
2022/05/14 00:08:38;;;;;;;;;;;24.20;84.50;;;;;;5051165;28;19928;-59
2022/05/14 00:13:51;;;;;;;;;;;24.30;84.90;;;;;;5033563;28;19929;-59
2022/05/14 00:16:19;;;;;;;;;;;24.20;84.80;;;;;;5044032;28;19936;-58
2022/05/14 00:18:47;;;;;;;;;;;24.30;84.80;;;;;;5052789;28;19940;-58
2022/05/14 00:21:14;;;;;;;;;;;24.20;84.90;;;;;;5034024;28;19925;-57
2022/05/14 00:23:41;;;;;;;;;;;24.20;85.00;;;;;;5040235;28;19925;-58
2022/05/14 00:26:08;;;;;;;;;;;24.20;85.20;;;;;;5032386;28;20312;-59
2022/05/14 00:28:35;;;;;;;;;;;24.20;85.00;;;;;;5051804;28;20259;-59
2022/05/14 00:31:02;;;;;;;;;;;24.20;84.80;;;;;;5045374;28;20359;-58
2022/05/14 00:33:30;;;;;;;;;;;24.20;84.90;;;;;;5048933;28;20028;-58
2022/05/14 00:35:57;;;;;;;;;;;24.20;85.20;;;;;;5038400;28;20273;-58
2022/05/14 00:38:24;;;;;;;;;;;24.20;85.30;;;;;;5039091;28;19936;-58
2022/05/14 00:40:56;;;;;;;;;;;24.20;85.40;;;;;;5056276;28;20415;-59
2022/05/14 00:43:23;;;;;;;;;;;24.20;85.40;;;;;;5060698;28;19928;-60
2022/05/14 00:45:53;;;;;;;;;;;24.20;85.50;;;;;;5066501;28;19936;-59
2022/05/14 00:48:21;;;;;;;;;;;24.20;85.50;;;;;;5030076;28;19929;-60
2022/05/14 00:50:53;;;;;;;;;;;24.20;85.80;;;;;;5050773;28;19928;-60
2022/05/14 00:53:32;;;;;;;;;;;24.20;85.40;;;;;;5046848;28;19929;-59
2022/05/14 00:56:01;;;;;;;;;;;24.20;85.90;;;;;;5050664;28;19936;-58
2022/05/14 00:58:38;;;;;;;;;;;24.20;86.00;;;;;;5038086;28;19925;-56
2022/05/14 01:01:05;;;;;;;;;;;24.20;86.20;;;;;;5031523;28;19925;-58
2022/05/14 01:03:33;;;;;;;;;;;24.20;86.30;;;;;;5030256;28;19929;-58
2022/05/14 01:06:02;;;;;;;;;;;24.20;86.60;;;;;;5030978;28;19935;-59
2022/05/14 01:08:30;;;;;;;;;;;24.10;86.20;;;;;;5025035;28;19932;-57
2022/05/14 01:10:57;;;;;;;;;;;24.20;86.20;;;;;;5033089;28;19933;-56
2022/05/14 01:13:25;;;;;;;;;;;24.20;86.20;;;;;;5029180;28;19929;-59
2022/05/14 01:15:56;;;;;;;;;;;24.20;86.70;;;;;;5055158;28;19935;-57
2022/05/14 01:18:27;;;;;;;;;;;24.10;86.40;;;;;;5031829;28;19929;-57
2022/05/14 01:21:04;;;;;;;;;;;24.10;86.10;;;;;;5027406;28;19929;-59
2022/05/14 01:26:27;;;;;;;;;;;24.10;86.00;;;;;;5029151;28;19928;-56
2022/05/14 01:26:28;;;;;;;;;;;24.10;85.90;;;;;;5038197;28;19928;-57
2022/05/14 01:29:04;;;;;;;;;;;24.10;85.60;;;;;;5023590;28;19933;-59
2022/05/14 01:31:31;;;;;;;;;;;24.10;86.00;;;;;;5047965;28;19929;-57
2022/05/14 01:33:59;;;;;;;;;;;24.10;85.90;;;;;;5039180;28;19929;-57
2022/05/14 01:36:27;;;;;;;;;;;24.10;85.80;;;;;;5026011;28;19929;-58
2022/05/14 01:38:55;;;;;;;;;;;24.10;85.70;;;;;;5015352;28;19933;-56
2022/05/14 01:41:24;;;;;;;;;;;24.10;85.70;;;;;;5053435;28;19929;-59
2022/05/14 01:43:52;;;;;;;;;;;24.10;85.80;;;;;;5043773;28;19929;-57
2022/05/14 01:46:19;;;;;;;;;;;24.10;86.10;;;;;;5032291;28;19929;-56
2022/05/14 01:48:47;;;;;;;;;;;24.10;86.00;;;;;;5021656;28;19924;-59
2022/05/14 01:51:14;;;;;;;;;;;24.00;85.80;;;;;;5041700;28;19924;-57
2022/05/14 01:53:42;;;;;;;;;;;24.10;86.60;;;;;;5035436;28;20136;-58
2022/05/14 01:56:10;;;;;;;;;;;24.10;86.60;;;;;;5025657;28;20324;-59
2022/05/14 01:58:37;;;;;;;;;;;24.10;86.80;;;;;;5025243;28;19940;-58
2022/05/14 02:01:19;;;;;;;;;;;24.10;86.60;;;;;;5025622;28;19940;-59
2022/05/14 02:03:51;;;;;;;;;;;24.00;86.60;;;;;;5023089;28;20193;-59
2022/05/14 02:06:19;;;;;;;;;;;24.00;86.60;;;;;;5022776;28;19936;-60
2022/05/14 02:08:47;;;;;;;;;;;24.00;86.90;;;;;;5022511;28;19925;-58
2022/05/14 02:11:14;;;;;;;;;;;24.00;86.80;;;;;;5021010;28;19925;-56
2022/05/14 02:13:44;;;;;;;;;;;24.00;86.90;;;;;;5022617;28;19929;-59
2022/05/14 02:16:12;;;;;;;;;;;24.00;86.90;;;;;;5028122;28;19929;-58
2022/05/14 02:18:40;;;;;;;;;;;24.00;87.00;;;;;;5017874;28;19930;-58
2022/05/14 02:21:07;;;;;;;;;;;24.00;86.90;;;;;;5023951;28;19940;-57
2022/05/14 02:23:36;;;;;;;;;;;24.00;87.20;;;;;;5017885;28;19936;-59
2022/05/14 02:26:08;;;;;;;;;;;24.00;87.10;;;;;;5036897;28;20343;-60
2022/05/14 02:28:35;;;;;;;;;;;24.00;86.80;;;;;;5013590;28;20001;-60
2022/05/14 02:31:02;;;;;;;;;;;24.00;86.50;;;;;;5034372;28;20619;-59
2022/05/14 02:33:30;;;;;;;;;;;24.00;86.10;;;;;;5029184;28;19929;-58
2022/05/14 02:35:58;;;;;;;;;;;24.00;86.20;;;;;;5029092;28;19939;-55
2022/05/14 02:38:28;;;;;;;;;;;24.00;85.90;;;;;;5029838;28;19925;-57
2022/05/14 02:40:55;;;;;;;;;;;23.90;86.00;;;;;;5032879;28;20304;-59
2022/05/14 02:43:23;;;;;;;;;;;23.90;86.30;;;;;;5019697;28;19929;-60
2022/05/14 02:45:50;;;;;;;;;;;23.90;86.50;;;;;;5035106;28;19925;-60
2022/05/14 02:48:17;;;;;;;;;;;23.90;86.40;;;;;;5027653;28;19929;-60
2022/05/14 02:50:45;;;;;;;;;;;23.90;86.40;;;;;;5021307;28;19944;-58
2022/05/14 02:53:12;;;;;;;;;;;23.90;86.40;;;;;;5015477;28;19929;-59
2022/05/14 02:55:39;;;;;;;;;;;23.90;86.30;;;;;;5037193;28;19929;-60
2022/05/14 02:58:06;;;;;;;;;;;23.90;86.20;;;;;;5022783;28;19935;-60
2022/05/14 03:00:34;;;;;;;;;;;23.90;86.10;;;;;;5029667;28;19943;-59
2022/05/14 03:03:01;;;;;;;;;;;23.90;86.00;;;;;;5015435;28;19926;-57
2022/05/14 03:05:28;;;;;;;;;;;23.90;85.60;;;;;;5023693;28;20300;-59
2022/05/14 03:07:56;;;;;;;;;;;23.90;85.70;;;;;;5021489;28;19926;-60
2022/05/14 03:10:23;;;;;;;;;;;23.80;85.40;;;;;;5025217;28;19928;-58
2022/05/14 03:12:50;;;;;;;;;;;23.80;85.30;;;;;;5019828;28;19933;-62
2022/05/14 03:15:17;;;;;;;;;;;23.80;85.60;;;;;;5023512;28;19983;-58
2022/05/14 03:17:44;;;;;;;;;;;23.80;85.40;;;;;;5014146;28;19925;-58
2022/05/14 03:20:12;;;;;;;;;;;23.80;85.40;;;;;;5029735;28;20313;-57
2022/05/14 03:22:41;;;;;;;;;;;23.80;85.70;;;;;;5010635;28;20404;-59
2022/05/14 03:25:09;;;;;;;;;;;23.80;85.50;;;;;;5005860;28;19933;-58
2022/05/14 03:27:37;;;;;;;;;;;23.80;86.00;;;;;;5012650;28;19930;-59
2022/05/14 03:30:05;;;;;;;;;;;23.80;86.00;;;;;;5014423;28;19925;-58
2022/05/14 03:32:32;;;;;;;;;;;23.80;86.00;;;;;;5019761;28;19925;-54
2022/05/14 03:35:01;;;;;;;;;;;23.80;86.00;;;;;;5025046;28;20411;-58
2022/05/14 03:37:29;;;;;;;;;;;23.80;86.00;;;;;;5028887;28;20301;-60
2022/05/14 03:39:56;;;;;;;;;;;23.70;84.40;;;;;;5021061;28;19936;-59
2022/05/14 03:42:23;;;;;;;;;;;23.10;78.50;;;;;;5025314;28;19936;-55
2022/05/14 03:44:50;;;;;;;;;;;22.40;78.60;;;;;;5029045;28;20132;-58
2022/05/14 03:47:18;;;;;;;;;;;21.90;78.70;;;;;;5019084;28;19929;-57
2022/05/14 03:49:45;;;;;;;;;;;21.70;78.80;;;;;;5031240;28;19933;-58
2022/05/14 03:52:12;;;;;;;;;;;21.40;79.10;;;;;;5023299;28;20036;-59
2022/05/14 03:54:40;;;;;;;;;;;21.20;79.20;;;;;;5043948;28;19933;-57
2022/05/14 03:57:07;;;;;;;;;;;21.40;80.30;;;;;;5037142;28;19929;-59
2022/05/14 03:59:34;;;;;;;;;;;21.80;80.10;;;;;;5044988;28;20280;-59
2022/05/14 04:02:03;;;;;;;;;;;22.10;80.00;;;;;;5033172;28;19924;-57
2022/05/14 04:04:31;;;;;;;;;;;22.40;80.60;;;;;;5052148;28;19936;-57
2022/05/14 04:06:59;;;;;;;;;;;22.60;80.70;;;;;;5030365;28;20397;-57
2022/05/14 04:09:26;;;;;;;;;;;22.80;80.20;;;;;;5060918;28;19925;-58
2022/05/14 04:11:55;;;;;;;;;;;22.90;80.50;;;;;;5038282;28;19939;-59
2022/05/14 04:14:22;;;;;;;;;;;23.00;81.20;;;;;;5042729;28;19929;-59
2022/05/14 04:16:52;;;;;;;;;;;23.10;81.20;;;;;;5039316;28;19929;-59
2022/05/14 04:19:20;;;;;;;;;;;23.10;81.40;;;;;;5048918;28;19928;-59
2022/05/14 04:21:47;;;;;;;;;;;23.20;81.40;;;;;;5055559;28;19929;-59
2022/05/14 04:24:14;;;;;;;;;;;23.20;81.50;;;;;;5058966;28;19956;-58
2022/05/14 04:26:42;;;;;;;;;;;23.20;81.90;;;;;;5039890;28;19947;-56
2022/05/14 04:29:09;;;;;;;;;;;23.20;82.00;;;;;;5040785;28;19932;-59
2022/05/14 04:31:36;;;;;;;;;;;23.30;82.20;;;;;;5032590;28;19948;-59
2022/05/14 04:34:04;;;;;;;;;;;23.30;82.30;;;;;;5037041;28;19928;-59
2022/05/14 04:36:31;;;;;;;;;;;23.30;82.20;;;;;;5035421;28;20370;-57
2022/05/14 04:38:58;;;;;;;;;;;23.30;82.40;;;;;;5025093;28;19936;-57
2022/05/14 04:41:30;;;;;;;;;;;23.30;82.60;;;;;;5047931;28;20011;-54
2022/05/14 04:44:00;;;;;;;;;;;23.30;82.90;;;;;;5029676;28;19933;-59
2022/05/14 04:46:28;;;;;;;;;;;23.30;83.10;;;;;;5029576;28;20357;-58
2022/05/14 04:48:58;;;;;;;;;;;23.30;84.10;;;;;;5034527;28;20331;-59
2022/05/14 04:51:25;;;;;;;;;;;23.30;83.60;;;;;;5016562;28;19929;-58
2022/05/14 04:53:52;;;;;;;;;;;23.40;82.90;;;;;;5058873;28;20423;-58
2022/05/14 04:56:19;;;;;;;;;;;23.30;82.80;;;;;;5042159;28;20408;-59
2022/05/14 04:58:46;;;;;;;;;;;23.30;83.30;;;;;;5033984;28;19940;-54
2022/05/14 05:01:13;;;;;;;;;;;23.30;83.40;;;;;;5040956;28;19925;-59
2022/05/14 05:03:41;;;;;;;;;;;23.30;82.80;;;;;;5034055;28;19952;-59
2022/05/14 05:06:09;;;;;;;;;;;23.30;82.60;;;;;;5053980;28;19928;-60
2022/05/14 05:08:38;;;;;;;;;;;23.30;83.00;;;;;;5029340;28;19929;-58
2022/05/14 05:11:05;;;;;;;;;;;23.30;82.80;;;;;;5043838;28;19925;-54
2022/05/14 05:13:35;;;;;;;;;;;23.40;83.00;;;;;;5049552;28;20307;-59
2022/05/14 05:16:02;;;;;;;;;;;23.40;83.50;;;;;;5044822;28;19932;-58
2022/05/14 05:18:29;;;;;;;;;;;23.50;84.50;;;;;;5040888;28;19934;-58
2022/05/14 05:20:56;;;;;;;;;;;23.50;85.00;;;;;;5041975;28;19928;-60
2022/05/14 05:23:24;;;;;;;;;;;23.50;85.30;;;;;;5045143;28;19929;-59
2022/05/14 05:25:52;;;;;;;;;;;23.50;85.60;;;;;;5040273;28;20312;-60
2022/05/14 05:28:19;;;;;;;;;;;23.60;85.60;;;;;;5038020;28;19936;-60
2022/05/14 05:30:46;;;;;;;;;;;23.50;85.70;;;;;;5046143;28;19935;-61
2022/05/14 05:33:15;;;;;;;;;;;23.50;85.90;;;;;;5040052;28;20385;-59
2022/05/14 05:35:43;;;;;;;;;;;23.50;85.90;;;;;;5052250;28;19929;-60
2022/05/14 05:38:10;;;;;;;;;;;23.60;85.90;;;;;;5039726;28;19933;-58
2022/05/14 05:40:37;;;;;;;;;;;23.60;85.90;;;;;;5049429;28;19939;-59
2022/05/14 05:43:05;;;;;;;;;;;23.60;86.20;;;;;;5046927;28;19936;-57
2022/05/14 05:45:33;;;;;;;;;;;23.50;85.70;;;;;;5040352;28;19929;-60
2022/05/14 05:48:00;;;;;;;;;;;23.50;85.30;;;;;;5046701;28;19928;-56
2022/05/14 05:50:27;;;;;;;;;;;23.50;84.80;;;;;;5055243;28;20581;-57
2022/05/14 05:52:54;;;;;;;;;;;23.40;84.70;;;;;;5031902;28;20397;-57
2022/05/14 05:58:07;;;;;;;;;;;23.50;85.00;;;;;;5041973;28;19935;-57
2022/05/14 06:00:36;;;;;;;;;;;23.50;85.20;;;;;;5043930;28;19932;-58
2022/05/14 06:03:03;;;;;;;;;;;23.50;85.60;;;;;;5041570;28;19979;-58
2022/05/14 06:05:37;;;;;;;;;;;23.60;87.30;;;;;;5045446;28;19938;-59
2022/05/14 06:08:11;;;;;;;;;;;23.60;88.20;;;;;;5035543;28;19935;-57
2022/05/14 06:10:39;;;;;;;;;;;23.70;89.00;;;;;;5053879;28;19929;-61
2022/05/14 06:13:08;;;;;;;;;;;23.80;89.40;;;;;;5039534;28;19928;-59
2022/05/14 06:15:36;;;;;;;;;;;23.90;89.50;;;;;;5054420;28;19931;-60
2022/05/14 06:18:04;;;;;;;;;;;23.90;89.30;;;;;;5029832;28;19935;-61
2022/05/14 06:20:31;;;;;;;;;;;23.90;89.50;;;;;;5053207;28;20449;-57
2022/05/14 06:23:01;;;;;;;;;;;23.90;89.30;;;;;;5036548;28;19932;-58
2022/05/14 06:25:28;;;;;;;;;;;23.90;89.60;;;;;;5035058;28;20435;-59
2022/05/14 06:27:55;;;;;;;;;;;23.90;89.60;;;;;;5050015;28;19940;-60
2022/05/14 06:30:22;;;;;;;;;;;23.90;89.80;;;;;;5045222;28;19936;-62
2022/05/14 06:32:49;;;;;;;;;;;23.90;90.00;;;;;;5048407;28;20400;-62
2022/05/14 06:35:17;;;;;;;;;;;23.90;90.10;;;;;;5042238;28;19925;-60
2022/05/14 06:37:45;;;;;;;;;;;23.80;90.20;;;;;;5028831;28;19933;-58
2022/05/14 06:40:12;;;;;;;;;;;23.80;90.20;;;;;;5026075;28;20232;-58
2022/05/14 06:42:39;;;;;;;;;;;23.90;90.10;;;;;;5034849;28;19937;-57
2022/05/14 06:45:07;;;;;;;;;;;23.80;89.80;;;;;;5043523;28;20415;-59
2022/05/14 06:47:35;;;;;;;;;;;23.80;89.20;;;;;;5040397;28;19933;-59
2022/05/14 06:50:03;;;;;;;;;;;23.80;88.60;;;;;;5034633;28;19925;-53
2022/05/14 06:52:31;;;;;;;;;;;23.70;88.80;;;;;;5041928;28;19929;-57
2022/05/14 06:54:59;;;;;;;;;;;23.70;88.60;;;;;;5045948;28;19935;-57
2022/05/14 06:57:27;;;;;;;;;;;23.70;87.90;;;;;;5046180;28;19926;-56
2022/05/14 06:59:54;;;;;;;;;;;23.70;87.60;;;;;;5043965;28;19936;-57
2022/05/14 07:02:22;;;;;;;;;;;23.70;87.40;;;;;;5029742;28;19936;-53
2022/05/14 07:07:34;;;;;;;;;;;23.70;87.10;;;;;;5029112;28;19925;-54
2022/05/14 07:10:02;;;;;;;;;;;23.70;87.00;;;;;;5040627;28;19928;-57
2022/05/14 07:12:30;;;;;;;;;;;23.70;86.90;;;;;;5025360;28;19929;-56
2022/05/14 07:14:57;;;;;;;;;;;23.70;86.90;;;;;;5045968;28;19936;-55
2022/05/14 07:17:27;;;;;;;;;;;23.70;86.80;;;;;;5047389;28;19928;-55
2022/05/14 07:19:55;;;;;;;;;;;23.70;86.90;;;;;;5047183;28;19936;-57
2022/05/14 07:22:22;;;;;;;;;;;23.70;86.80;;;;;;5032214;28;19933;-56
2022/05/14 07:24:49;;;;;;;;;;;23.70;86.70;;;;;;5036797;28;19928;-56
2022/05/14 07:27:17;;;;;;;;;;;23.70;86.70;;;;;;5051098;28;19925;-56
2022/05/14 07:29:45;;;;;;;;;;;23.70;86.70;;;;;;5043568;28;19929;-53
2022/05/14 07:32:13;;;;;;;;;;;23.70;86.70;;;;;;5034957;28;19941;-51
2022/05/14 07:34:40;;;;;;;;;;;23.70;86.50;;;;;;5059572;28;19943;-57
2022/05/14 07:37:07;;;;;;;;;;;23.80;86.60;;;;;;5044254;28;19929;-52
2022/05/14 07:39:40;;;;;;;;;;;23.80;86.60;;;;;;5053309;28;19932;-57
2022/05/14 07:42:10;;;;;;;;;;;23.70;86.60;;;;;;5037759;28;19936;-56
2022/05/14 07:44:39;;;;;;;;;;;23.80;86.70;;;;;;5056250;28;19940;-56
2022/05/14 07:47:07;;;;;;;;;;;23.80;86.60;;;;;;5055265;28;19928;-53
2022/05/14 07:49:34;;;;;;;;;;;23.80;86.60;;;;;;5048957;28;19939;-55
2022/05/14 07:52:02;;;;;;;;;;;23.80;86.50;;;;;;5062487;28;19925;-55
2022/05/14 07:54:29;;;;;;;;;;;23.80;86.60;;;;;;5050846;28;19925;-55
2022/05/14 07:56:56;;;;;;;;;;;23.80;86.60;;;;;;5050534;28;19925;-56
2022/05/14 07:59:23;;;;;;;;;;;23.80;86.60;;;;;;5031325;28;19928;-57
2022/05/14 08:01:50;;;;;;;;;;;23.90;86.60;;;;;;5042695;28;19971;-52
2022/05/14 08:04:18;;;;;;;;;;;23.80;86.50;;;;;;5045444;28;19928;-55
2022/05/14 08:06:45;;;;;;;;;;;23.90;86.50;;;;;;5044736;28;20008;-55
2022/05/14 08:09:12;;;;;;;;;;;23.90;86.50;;;;;;5046998;28;19933;-57
2022/05/14 08:11:39;;;;;;;;;;;23.90;86.50;;;;;;5061982;28;19928;-55
2022/05/14 08:14:06;;;;;;;;;;;23.90;86.50;;;;;;5049375;28;19954;-53
2022/05/14 08:16:34;;;;;;;;;;;23.90;86.50;;;;;;5052577;28;19929;-57
2022/05/14 08:19:01;;;;;;;;;;;23.90;86.50;;;;;;5039451;28;19929;-55
2022/05/14 08:27:02;;;;;;;;;;;23.90;86.60;;;;;;5036994;28;19929;-57
2022/05/14 08:29:29;;;;;;;;;;;23.90;86.60;;;;;;5052914;28;19925;-57
2022/05/14 08:31:57;;;;;;;;;;;23.90;86.60;;;;;;5035795;28;19952;-55
2022/05/14 08:34:24;;;;;;;;;;;23.90;86.60;;;;;;5046032;28;19932;-55
2022/05/14 08:36:51;;;;;;;;;;;23.90;86.60;;;;;;5048496;28;19929;-55
2022/05/14 08:39:19;;;;;;;;;;;23.90;86.50;;;;;;5035295;28;19929;-54
2022/05/14 08:41:47;;;;;;;;;;;23.90;86.60;;;;;;5031795;28;19940;-54
2022/05/14 08:44:17;;;;;;;;;;;23.90;86.60;;;;;;5046302;28;20002;-53
2022/05/14 08:46:44;;;;;;;;;;;23.90;86.60;;;;;;5039764;28;20368;-57
2022/05/14 08:49:31;;;;;;;;;;;23.90;86.50;;;;;;5047938;28;20395;-56
2022/05/14 08:52:00;;;;;;;;;;;23.90;86.50;;;;;;5035195;28;19956;-57
2022/05/14 08:54:28;;;;;;;;;;;23.90;86.40;;;;;;5033073;28;19929;-56
2022/05/14 08:57:15;;;;;;;;;;;23.90;86.40;;;;;;5044589;28;20343;-56
2022/05/14 08:59:49;;;;;;;;;;;23.90;86.40;;;;;;5050814;28;19936;-53
2022/05/14 09:02:21;;;;;;;;;;;23.90;86.40;;;;;;5049538;28;19929;-54
2022/05/14 09:04:50;;;;;;;;;;;23.90;86.30;;;;;;5047053;28;19928;-56
2022/05/14 09:07:18;;;;;;;;;;;23.90;86.20;;;;;;5029943;28;19929;-55
2022/05/14 09:09:49;;;;;;;;;;;24.00;86.20;;;;;;5039559;28;19928;-55
2022/05/14 09:12:18;;;;;;;;;;;24.00;86.20;;;;;;5042708;28;19929;-55
2022/05/14 09:14:51;;;;;;;;;;;24.00;86.10;;;;;;5031673;28;19929;-58
2022/05/14 09:17:22;;;;;;;;;;;24.00;86.20;;;;;;5036444;28;20316;-58
2022/05/14 09:19:51;;;;;;;;;;;24.00;86.40;;;;;;5047214;28;19929;-56
2022/05/14 09:22:22;;;;;;;;;;;24.00;86.30;;;;;;5025979;28;19939;-57
2022/05/14 09:24:51;;;;;;;;;;;24.00;86.30;;;;;;5037136;28;19932;-59
2022/05/14 09:27:24;;;;;;;;;;;24.00;86.40;;;;;;5038850;28;20404;-58
2022/05/14 09:29:55;;;;;;;;;;;24.00;86.40;;;;;;5040593;28;20308;-56
2022/05/14 09:32:23;;;;;;;;;;;24.00;86.50;;;;;;5034182;28;19936;-56
2022/05/14 09:34:50;;;;;;;;;;;24.00;86.30;;;;;;5037527;28;19924;-58
2022/05/14 09:37:39;;;;;;;;;;;24.00;86.20;;;;;;5036666;28;19929;-58
2022/05/14 09:40:18;;;;;;;;;;;24.00;86.60;;;;;;5038021;28;19935;-58
2022/05/14 09:42:47;;;;;;;;;;;24.00;87.00;;;;;;5036092;28;19941;-57
2022/05/14 09:45:24;;;;;;;;;;;24.00;87.50;;;;;;5047321;28;19928;-54
2022/05/14 09:47:51;;;;;;;;;;;24.00;88.00;;;;;;5040574;28;19936;-54
2022/05/14 09:50:22;;;;;;;;;;;23.90;88.60;;;;;;5041323;28;20276;-62
2022/05/14 09:53:01;;;;;;;;;;;24.00;89.30;;;;;;5041430;28;21239;-61
2022/05/14 09:55:37;;;;;;;;;;;24.00;90.20;;;;;;5043020;28;19929;-59
2022/05/14 09:58:11;;;;;;;;;;;24.00;90.00;;;;;;5037066;28;19948;-59
2022/05/14 10:00:58;;;;;;;;;;;24.00;90.10;;;;;;5049455;28;19929;-66
2022/05/14 10:03:36;;;;;;;;;;;24.00;90.30;;;;;;5037812;28;19948;-59
2022/05/14 10:06:24;;;;;;;;;;;24.00;90.50;;;;;;5047070;28;20376;-60
2022/05/14 10:08:57;;;;;;;;;;;24.00;90.50;;;;;;5053239;28;19935;-58
2022/05/14 10:11:24;;;;;;;;;;;24.00;90.50;;;;;;5057863;28;20290;-61
2022/05/14 10:14:00;;;;;;;;;;;24.00;90.50;;;;;;5038790;28;19929;-59
2022/05/14 10:16:34;;;;;;;;;;;24.00;90.40;;;;;;5049699;28;19924;-56
2022/05/14 10:19:09;;;;;;;;;;;24.00;90.40;;;;;;5044937;28;20050;-60
2022/05/14 10:21:52;;;;;;;;;;;24.00;90.30;;;;;;5030685;28;19933;-59
2022/05/14 10:27:19;;;;;;;;;;;24.00;90.30;;;;;;5054384;28;19929;-60
2022/05/14 10:30:00;;;;;;;;;;;24.00;90.10;;;;;;5052180;28;19929;-56
2022/05/14 10:32:30;;;;;;;;;;;24.00;89.90;;;;;;5047718;28;19955;-59
2022/05/14 10:35:09;;;;;;;;;;;24.00;90.00;;;;;;5055075;28;20348;-59
2022/05/14 10:37:49;;;;;;;;;;;24.10;89.90;;;;;;5045215;28;19956;-60
2022/05/14 10:40:19;;;;;;;;;;;24.10;89.80;;;;;;5029505;28;20413;-59
2022/05/14 10:42:52;;;;;;;;;;;24.10;89.80;;;;;;5044839;28;19924;-58
2022/05/14 10:45:23;;;;;;;;;;;24.10;89.80;;;;;;5041852;28;20392;-60
2022/05/14 10:48:03;;;;;;;;;;;24.00;89.60;;;;;;5037589;28;20029;-59
2022/05/14 10:50:31;;;;;;;;;;;24.00;89.20;;;;;;5037443;28;19933;-58
2022/05/14 10:52:58;;;;;;;;;;;24.00;89.10;;;;;;5043283;28;19936;-56
2022/05/14 10:55:30;;;;;;;;;;;24.10;89.00;;;;;;5038545;28;19932;-60
2022/05/14 10:58:00;;;;;;;;;;;24.10;89.00;;;;;;5041190;28;19935;-61
2022/05/14 11:00:29;;;;;;;;;;;24.10;88.70;;;;;;5048324;28;19935;-58
2022/05/14 11:02:59;;;;;;;;;;;24.10;88.40;;;;;;5040688;28;19952;-60
2022/05/14 11:05:27;;;;;;;;;;;24.10;89.10;;;;;;5040849;28;19951;-59
2022/05/14 11:08:05;;;;;;;;;;;24.10;89.10;;;;;;5045142;28;20442;-60
2022/05/14 11:10:34;;;;;;;;;;;24.10;88.90;;;;;;5053281;28;19936;-61
2022/05/14 11:13:13;;;;;;;;;;;24.10;89.00;;;;;;5040220;28;19929;-58
2022/05/14 11:15:42;;;;;;;;;;;24.10;89.40;;;;;;5040323;28;20443;-59
2022/05/14 11:18:12;;;;;;;;;;;24.10;89.60;;;;;;5033510;28;19925;-60
2022/05/14 11:20:52;;;;;;;;;;;24.10;90.30;;;;;;5043747;28;19929;-61
2022/05/14 11:23:19;;;;;;;;;;;24.00;90.60;;;;;;5040951;28;19936;-61
2022/05/14 11:25:46;;;;;;;;;;;24.10;90.80;;;;;;5048117;28;19933;-58
2022/05/14 11:28:16;;;;;;;;;;;24.10;91.40;;;;;;5044227;28;19925;-60
2022/05/14 11:30:45;;;;;;;;;;;24.10;92.60;;;;;;5025840;28;20305;-59
2022/05/14 11:33:20;;;;;;;;;;;24.10;92.70;;;;;;5041402;28;19936;-57
2022/05/14 11:35:48;;;;;;;;;;;24.10;92.90;;;;;;5045514;28;19936;-59
2022/05/14 11:38:25;;;;;;;;;;;24.10;93.40;;;;;;5040971;28;19963;-61
2022/05/14 11:40:59;;;;;;;;;;;24.10;93.50;;;;;;5044069;28;20004;-59
2022/05/14 11:43:26;;;;;;;;;;;24.10;93.70;;;;;;5059380;28;19932;-56
2022/05/14 11:46:07;;;;;;;;;;;24.10;94.30;;;;;;5052655;28;19929;-60
2022/05/14 11:48:44;;;;;;;;;;;24.10;94.40;;;;;;5050960;28;20076;-60
2022/05/14 11:51:15;;;;;;;;;;;24.10;94.70;;;;;;5044244;28;19929;-59
2022/05/14 11:53:44;;;;;;;;;;;24.10;95.10;;;;;;5040876;28;19929;-60
2022/05/14 11:56:15;;;;;;;;;;;24.20;95.90;;;;;;5041424;28;19936;-56
2022/05/14 11:58:50;;;;;;;;;;;24.20;97.10;;;;;;5048916;28;19929;-61
2022/05/14 12:01:19;;;;;;;;;;;24.20;98.40;;;;;;5040542;28;19999;-61
2022/05/14 12:03:47;;;;;;;;;;;24.20;99.30;;;;;;5047679;28;19931;-59
2022/05/14 12:06:23;;;;;;;;;;;24.20;99.30;;;;;;5046008;28;19952;-60
2022/05/14 12:08:56;;;;;;;;;;;24.20;99.80;;;;;;5044902;28;19929;-61
2022/05/14 12:11:44;;;;;;;;;;;24.30;99.30;;;;;;5050008;28;19947;-60
2022/05/14 12:14:16;;;;;;;;;;;24.20;98.80;;;;;;5044738;28;19924;-57
2022/05/14 12:16:46;;;;;;;;;;;24.20;98.40;;;;;;5046276;28;19951;-58
2022/05/14 12:19:21;;;;;;;;;;;24.20;98.30;;;;;;5040546;28;20396;-61
2022/05/14 12:22:07;;;;;;;;;;;24.20;97.90;;;;;;5036855;28;19935;-60
2022/05/14 12:24:41;;;;;;;;;;;24.20;97.50;;;;;;5043412;28;19935;-60
2022/05/14 12:27:15;;;;;;;;;;;24.10;97.00;;;;;;5020165;28;20288;-62
2022/05/14 12:29:53;;;;;;;;;;;24.20;96.60;;;;;;5023341;28;19936;-59
2022/05/14 12:35:15;;;;;;;;;;;24.20;96.30;;;;;;5036369;28;19941;-58
2022/05/14 12:37:42;;;;;;;;;;;24.30;95.80;;;;;;5046087;28;20031;-62
2022/05/14 12:40:17;;;;;;;;;;;24.20;95.70;;;;;;5033357;28;20332;-61
2022/05/14 12:42:44;;;;;;;;;;;24.20;95.50;;;;;;5048163;28;19932;-58
2022/05/14 12:45:12;;;;;;;;;;;24.20;95.00;;;;;;5038103;28;19929;-60
2022/05/14 12:47:39;;;;;;;;;;;24.20;94.80;;;;;;5041493;28;19936;-59
2022/05/14 12:50:18;;;;;;;;;;;24.20;94.50;;;;;;5029273;28;19933;-59
2022/05/14 12:52:53;;;;;;;;;;;24.20;94.20;;;;;;5038628;28;19932;-62
2022/05/14 12:55:20;;;;;;;;;;;24.20;94.00;;;;;;5045423;28;19931;-60
2022/05/14 12:57:48;;;;;;;;;;;24.20;93.90;;;;;;5051187;28;19936;-59
2022/05/14 13:00:17;;;;;;;;;;;24.20;94.10;;;;;;5041556;28;19929;-62
2022/05/14 13:02:47;;;;;;;;;;;24.30;93.90;;;;;;5032376;28;20438;-58
2022/05/14 13:05:35;;;;;;;;;;;24.30;93.90;;;;;;5045484;28;19929;-56
2022/05/14 13:08:06;;;;;;;;;;;24.30;93.70;;;;;;5027905;28;19928;-58
2022/05/14 13:10:34;;;;;;;;;;;24.30;93.40;;;;;;5056519;28;20395;-58
2022/05/14 13:13:02;;;;;;;;;;;24.40;93.40;;;;;;5029162;28;19929;-57
2022/05/14 13:15:33;;;;;;;;;;;24.40;93.30;;;;;;5044501;28;19928;-59
2022/05/14 13:18:14;;;;;;;;;;;24.40;93.30;;;;;;5029495;28;20435;-58
2022/05/14 13:20:42;;;;;;;;;;;24.50;93.30;;;;;;5046638;28;20296;-59
2022/05/14 13:23:15;;;;;;;;;;;24.50;93.20;;;;;;5034422;28;20031;-56
2022/05/14 13:25:42;;;;;;;;;;;24.50;93.20;;;;;;5048402;28;19928;-58
2022/05/14 13:28:17;;;;;;;;;;;24.50;93.00;;;;;;5043201;28;19956;-60
2022/05/14 13:30:46;;;;;;;;;;;24.50;92.90;;;;;;5044829;28;20332;-58
2022/05/14 13:33:34;;;;;;;;;;;24.60;92.80;;;;;;5030067;28;19929;-62
2022/05/14 13:38:59;;;;;;;;;;;24.60;92.60;;;;;;5031175;28;19951;-59
2022/05/14 13:41:29;;;;;;;;;;;24.70;92.50;;;;;;5030575;28;19929;-58
2022/05/14 13:43:58;;;;;;;;;;;24.70;92.40;;;;;;5035844;28;20313;-61
2022/05/14 13:46:25;;;;;;;;;;;24.70;92.20;;;;;;5038463;28;20301;-60
2022/05/14 13:48:53;;;;;;;;;;;24.80;92.10;;;;;;5031811;28;20429;-61
2022/05/14 13:51:30;;;;;;;;;;;24.80;92.00;;;;;;5055839;28;19940;-59
2022/05/14 13:54:15;;;;;;;;;;;24.80;91.90;;;;;;5040471;28;19932;-60
2022/05/14 13:56:44;;;;;;;;;;;24.80;91.80;;;;;;5031517;28;20417;-58
2022/05/14 13:59:27;;;;;;;;;;;24.90;91.70;;;;;;5044607;28;19924;-59
2022/05/14 14:02:07;;;;;;;;;;;24.90;91.70;;;;;;5044894;28;20307;-59
2022/05/14 14:04:36;;;;;;;;;;;24.90;91.60;;;;;;5039053;28;20299;-61
2022/05/14 14:07:04;;;;;;;;;;;24.90;91.60;;;;;;5049967;28;20322;-58
2022/05/14 14:09:32;;;;;;;;;;;25.00;91.50;;;;;;5029704;28;19925;-58
2022/05/14 14:11:59;;;;;;;;;;;25.00;91.50;;;;;;5032403;28;20293;-61
2022/05/14 14:14:26;;;;;;;;;;;25.00;91.50;;;;;;5046855;28;19932;-58
2022/05/14 14:16:54;;;;;;;;;;;25.00;91.50;;;;;;5043039;28;19929;-61
2022/05/14 14:19:21;;;;;;;;;;;25.10;91.40;;;;;;5039969;28;20434;-59
2022/05/14 14:21:49;;;;;;;;;;;25.10;91.40;;;;;;5033338;28;20248;-62
2022/05/14 14:24:17;;;;;;;;;;;25.10;91.40;;;;;;5039180;28;20000;-60
2022/05/14 14:26:45;;;;;;;;;;;25.10;91.30;;;;;;5042674;28;19925;-59
2022/05/14 14:29:12;;;;;;;;;;;25.10;91.20;;;;;;5040593;28;19928;-61
2022/05/14 14:31:39;;;;;;;;;;;25.20;91.20;;;;;;5046643;28;19929;-61
2022/05/14 14:34:07;;;;;;;;;;;25.20;91.20;;;;;;5035596;28;19928;-61
2022/05/14 14:36:34;;;;;;;;;;;25.20;91.20;;;;;;5034661;28;19929;-61
2022/05/14 14:39:03;;;;;;;;;;;25.20;91.20;;;;;;5034341;28;19929;-62
2022/05/14 14:41:30;;;;;;;;;;;25.20;91.20;;;;;;5035064;28;19929;-62
2022/05/14 14:43:58;;;;;;;;;;;25.20;91.10;;;;;;5040966;28;19936;-59
2022/05/14 14:46:25;;;;;;;;;;;25.30;91.10;;;;;;5053883;28;19936;-60
2022/05/14 14:48:53;;;;;;;;;;;25.30;91.00;;;;;;5049392;28;20011;-62
2022/05/14 14:51:24;;;;;;;;;;;25.30;91.10;;;;;;5045571;28;19936;-60
2022/05/14 14:53:51;;;;;;;;;;;25.30;91.10;;;;;;5030074;28;19936;-62